SBRF/REC METAR and TAF weather

Enter ICAO airport designator
Station Type Date Time Source
SBRF METAR 2022/01/23 11:00 UTC NOAA

SBRF 231100Z 32005KT 9999 SCT020 FEW021TCU SCT034 27/23 Q1012


Station Type Date Time Source
SBRF Decoded METAR 2022/01/23 11:00 UTC NOAA

Recife Aeroporto , Brazil (SBRF) 08-04S 034-51W
Jan 23, 2022 - 06:00 AM EST / 2022.01.23 1100 UTC
Wind: from the NW (320 degrees) at 6 MPH (5 KT):0
Visibility: greater than 7 mile(s):0
Sky conditions: partly cloudy
Weather: Towering cumulus clouds observed
Temperature: 80 F (27 C)
Dew Point: 73 F (23 C)
Relative Humidity: 78%
Pressure (altimeter): 29.88 in. Hg (1012 hPa)
ob: SBRF 231100Z 32005KT 9999 SCT020 FEW021TCU SCT034 27/23 Q1012
cycle: 11

Station Type Date Time Source
SBRF TAF 2022/01/23 12:48 UTC NOAA

TAF SBRF 230845Z 2312/2412 11006KT 7000 SCT020 TX30/2316Z TN25/2408Z
BECMG 2312/2314 13006KT SCT020 FEW030TCU
BECMG 2318/2320 11006KT SCT020
BECMG 2400/2402 09006KT
BECMG 2406/2408 11006KT
RMK PGW

Example: see airport list